D. Carlos I — CTHJ — position and weather

sailwx.info

Track history (hours):
 
Tides and Currents Weather Stations Pressure Air Temp Water Temp Dewpoint Dewpoint Depression Visibility Wind Speed Wind Dir Waves Ship Positions

Oceanographic research ship D. Carlos I (Portugal)

Detailed information on ship capabilities available from University of Delaware's Ocean Information Center.

Last reported at 2017-Aug-16 19:00 UTC. Time now 2017-Aug-16 19:12 UTC.
Position N 37°52' W 027°09'.

Length 17 m; draft 6 m.

Type: Other ship. MMSI: 263144000.

Date/timePositionNaut miles runAvg speedWind from/ knotsBaromVisibWave heightAir tempDewpointWater temp
2017-Aug-16 19:00N 37°52' W 027°09'4 5.5
2017-Aug-16 18:13N 37°55' W 027°05'5 5.5
2017-Aug-16 17:19N 37°59' W 027°01'2 5.9
2017-Aug-16 16:55N 38°01' W 026°60'2 6.1
2017-Aug-16 16:30N 38°03' W 026°58'3 6.1
2017-Aug-16 16:00N 38°06' W 026°55'3 5.9
2017-Aug-16 15:31N 38°08' W 026°53'2 4.7
2017-Aug-16 15:00N 38°10' W 026°52'1 1.0
2017-Aug-16 14:31N 38°10' W 026°51'3 6.1
2017-Aug-16 14:01N 38°13' W 026°52'3 5.7
2017-Aug-16 13:30N 38°16' W 026°53'3 6.2
2017-Aug-16 12:59N 38°19' W 026°54'3 6.3
2017-Aug-16 12:30N 38°22' W 026°55'3 6.5
2017-Aug-16 12:00N 38°25' W 026°56'3 6.9
2017-Aug-16 11:30N 38°28' W 026°57'3 6.8
2017-Aug-16 11:00N 38°32' W 026°58'4 6.6
2017-Aug-16 10:26N 38°35' W 026°59'3 6.8
2017-Aug-16 10:00N 38°38' W 027°00'3 6.5
2017-Aug-16 09:30N 38°41' W 027°01'2 4.1
2017-Aug-16 08:58N 38°43' W 027°02'3 5.4
2017-Aug-16 08:27N 38°42' W 026°59'10 6.1
2017-Aug-16 06:45N 38°35' W 026°49'1 5.6
2017-Aug-16 06:30N 38°34' W 026°48'3 5.9
2017-Aug-16 05:55N 38°31' W 026°45'3 6.3
2017-Aug-16 05:25N 38°29' W 026°42'7 6.8
2017-Aug-16 04:18N 38°23' W 026°36'2 6.7
2017-Aug-16 04:00N 38°22' W 026°34'4 6.6
2017-Aug-16 03:26N 38°19' W 026°30'3 6.6
2017-Aug-16 02:59N 38°17' W 026°28'3 6.6
2017-Aug-16 02:31N 38°15' W 026°25'3 6.3
2017-Aug-16 02:01N 38°13' W 026°22'3 5.9
2017-Aug-16 01:30N 38°11' W 026°20'3 5.9
2017-Aug-16 01:01N 38°09' W 026°17'3 6.3
2017-Aug-16 00:30N 38°06' W 026°14'3 6.4
2017-Aug-16 00:00N 38°04' W 026°11'3 6.4
2017-Aug-15 23:30N 38°01' W 026°09'3 6.2
2017-Aug-15 23:00N 37°59' W 026°06'3 6.0
2017-Aug-15 22:30N 37°57' W 026°03'3 5.9
2017-Aug-15 22:00N 37°55' W 026°00'3 5.5
2017-Aug-15 21:30N 37°53' W 025°58'3 5.5
2017-Aug-15 21:00N 37°51' W 025°55'3 5.9
2017-Aug-15 20:31N 37°49' W 025°53'3 6.2
2017-Aug-15 20:00N 37°47' W 025°50'3 6.2
2017-Aug-15 19:30N 37°45' W 025°47'3 6.2
2017-Aug-15 19:01N 37°44' W 025°44'3 5.5
2017-Aug-15 18:30N 37°43' W 025°40'1 2.7
2017-Aug-15 18:00N 37°44' W 025°39'  
2017-Aug-12 19:13N 37°44' W 025°40'0 0.3
2017-Aug-12 19:01N 37°44' W 025°39'3 6.5
2017-Aug-12 18:31N 37°43' W 025°36'4 7.6
2017-Aug-12 18:00N 37°40' W 025°32'4 7.4
2017-Aug-12 17:31N 37°38' W 025°28'4 7.5
2017-Aug-12 17:00N 37°36' W 025°24'4 7.2
2017-Aug-12 16:31N 37°35' W 025°20'4 7.7
2017-Aug-12 16:01N 37°32' W 025°16'4 7.8
2017-Aug-12 15:31N 37°30' W 025°12'4 7.4
2017-Aug-12 15:01N 37°28' W 025°08'4 7.6
2017-Aug-12 14:31N 37°26' W 025°04'4 7.7
2017-Aug-12 14:01N 37°23' W 025°01'4 7.8
2017-Aug-12 13:30N 37°21' W 024°57'4 7.8
2017-Aug-12 13:01N 37°19' W 024°53'4 7.9
2017-Aug-12 12:30N 37°16' W 024°49'3 5.2
2017-Aug-12 12:00N 37°15' W 024°46'4 7.2
2017-Aug-12 11:30N 37°13' W 024°43'4 7.7
2017-Aug-12 11:00N 37°11' W 024°38'2 3.2
2017-Aug-12 10:30N 37°10' W 024°37'3 6.8
2017-Aug-12 10:00N 37°10' W 024°41'3 6.7
2017-Aug-12 09:30N 37°10' W 024°45'3 6.9
2017-Aug-12 09:01N 37°10' W 024°50'3 6.9
2017-Aug-12 08:30N 37°10' W 024°54'2 4.7
2017-Aug-12 08:00N 37°13' W 024°54'4 7.6
2017-Aug-12 07:30N 37°15' W 024°50'2 4.7
2017-Aug-12 07:00N 37°16' W 024°47'1 2.6
2017-Aug-12 06:30N 37°17' W 024°46'4 7.1
2017-Aug-12 06:00N 37°19' W 024°42'4 7.7
2017-Aug-12 05:30N 37°21' W 024°38'4 7.1
2017-Aug-12 05:01N 37°23' W 024°41'4 7.3
2017-Aug-12 04:30N 37°26' W 024°44'3 6.2
2017-Aug-12 04:00N 37°27' W 024°48'4 7.6
2017-Aug-12 03:30N 37°26' W 024°52'4 7.6
2017-Aug-12 03:00N 37°24' W 024°57'4 7.5
2017-Aug-12 02:30N 37°22' W 025°01'2 4.3
2017-Aug-12 02:00N 37°20' W 025°02'3 5.2
2017-Aug-12 01:30N 37°21' W 025°05'3 5.8
2017-Aug-12 01:00N 37°22' W 025°08'4 7.2
2017-Aug-12 00:31N 37°24' W 025°12'4 7.0
2017-Aug-12 00:00N 37°27' W 025°15'3 6.8
2017-Aug-11 23:31N 37°29' W 025°18'3 6.7
2017-Aug-11 23:00N 37°31' W 025°21'3 7.0
2017-Aug-11 22:30N 37°34' W 025°25'4 7.0
2017-Aug-11 22:00N 37°36' W 025°28'3 6.9
2017-Aug-11 21:30N 37°38' W 025°31'3 6.8
2017-Aug-11 21:00N 37°40' W 025°34'3 6.9
2017-Aug-11 20:30N 37°43' W 025°37'2 3.9
2017-Aug-11 20:00N 37°44' W 025°39'1 2.4
2017-Aug-11 19:30N 37°44' W 025°38'4 7.9
2017-Aug-11 19:00N 37°42' W 025°33'4 7.6
2017-Aug-11 18:30N 37°39' W 025°30'4 7.7
2017-Aug-11 18:00N 37°37' W 025°26'4 7.6
2017-Aug-11 17:30N 37°35' W 025°22'4 7.4
2017-Aug-11 17:00N 37°33' W 025°17'4 8.0
2017-Aug-11 16:31N 37°31' W 025°14'4 7.9
2017-Aug-11 16:00N 37°29' W 025°10'4 7.7
2017-Aug-11 15:30N 37°26' W 025°06'2 4.1
2017-Aug-11 15:01N 37°24' W 025°04'3 5.8
2017-Aug-11 14:31N 37°22' W 025°02'3 3.4
2017-Aug-11 13:30N 37°24' W 025°06'2 4.9
2017-Aug-11 13:00N 37°22' W 025°07'4 7.1
2017-Aug-11 12:30N 37°19' W 025°04'4 7.1
2017-Aug-11 12:01N 37°17' W 025°01'4 7.1
2017-Aug-11 11:30N 37°15' W 024°57'4 7.1
2017-Aug-11 11:00N 37°12' W 024°54'3 5.4
2017-Aug-11 10:30N 37°10' W 024°52'3 6.6
2017-Aug-11 10:01N 37°12' W 024°55'4 7.1
2017-Aug-11 09:30N 37°15' W 024°58'3 6.1
2017-Aug-11 09:00N 37°17' W 025°01'3 6.9
2017-Aug-11 08:31N 37°18' W 024°57'4 7.1
2017-Aug-11 08:00N 37°20' W 024°53'3 7.1
2017-Aug-11 07:31N 37°22' W 024°49'3 6.6
2017-Aug-11 07:00N 37°23' W 024°45'3 6.8
2017-Aug-11 06:30N 37°25' W 024°42'2 4.4
2017-Aug-11 06:00N 37°26' W 024°40'4 7.4
2017-Aug-11 05:30N 37°29' W 024°43'3 7.0
2017-Aug-11 05:00N 37°30' W 024°47'3 6.9
2017-Aug-11 04:30N 37°32' W 024°51'3 6.9
2017-Aug-11 04:00N 37°33' W 024°55'3 6.8
2017-Aug-11 03:30N 37°35' W 024°59'4 7.1
2017-Aug-11 03:00N 37°33' W 025°03'4 7.4
2017-Aug-11 02:30N 37°32' W 025°07'4 7.1
2017-Aug-11 02:00N 37°30' W 025°11'3 7.0
2017-Aug-11 01:30N 37°28' W 025°15'3 5.8
2017-Aug-11 01:00N 37°27' W 025°18'4 7.6
2017-Aug-11 00:30N 37°25' W 025°14'4 7.4
2017-Aug-11 00:00N 37°25' W 025°09'3 6.8
2017-Aug-10 23:31N 37°23' W 025°06'2 4.8
2017-Aug-10 23:00N 37°21' W 025°03'2 4.4
2017-Aug-10 22:30N 37°23' W 025°05'3 5.9
2017-Aug-10 22:00N 37°25' W 025°08'2 4.9
2017-Aug-10 21:31N 37°23' W 025°06'3 6.9
2017-Aug-10 21:00N 37°21' W 025°02'2 3.2
2017-Aug-10 20:30N 37°22' W 025°04'3 6.6
2017-Aug-10 20:00N 37°25' W 025°07'1 2.2
2017-Aug-10 19:30N 37°25' W 025°06'1 2.9
2017-Aug-10 19:00N 37°24' W 025°05'3 6.0
2017-Aug-10 18:30N 37°26' W 025°08'2 4.0
2017-Aug-10 18:00N 37°25' W 025°05'3 6.6
2017-Aug-10 17:31N 37°22' W 025°03'2 3.7
2017-Aug-10 17:00N 37°22' W 025°00'3 6.4
2017-Aug-10 16:30N 37°24' W 025°03'3 6.4
2017-Aug-10 16:00N 37°26' W 025°06'3 6.3
2017-Aug-10 15:30N 37°28' W 025°09'1 3.0
2017-Aug-10 15:00N 37°29' W 025°08'3 6.1
2017-Aug-10 14:31N 37°27' W 025°05'3 6.2
2017-Aug-10 14:00N 37°25' W 025°02'3 5.4
2017-Aug-10 13:31N 37°25' W 024°59'3 6.2
2017-Aug-10 13:00N 37°26' W 024°55'3 6.3
2017-Aug-10 12:30N 37°28' W 024°52'3 6.2
2017-Aug-10 12:00N 37°29' W 024°48'3 6.3
2017-Aug-10 11:30N 37°30' W 024°45'3 6.3
2017-Aug-10 11:01N 37°32' W 024°41'3 5.4
2017-Aug-10 10:30N 37°30' W 024°39'1 1.7
2017-Aug-10 10:00N 37°29' W 024°39'3 5.5
2017-Aug-10 09:30N 37°31' W 024°42'3 5.8
2017-Aug-10 09:01N 37°33' W 024°44'3 5.5
2017-Aug-10 08:30N 37°34' W 024°47'2 3.5
2017-Aug-10 08:00N 37°33' W 024°49'3 6.3
2017-Aug-10 07:30N 37°31' W 024°46'3 6.7
2017-Aug-10 07:00N 37°29' W 024°42'3 6.5
2017-Aug-10 06:30N 37°27' W 024°39'3 6.0
2017-Aug-10 06:00N 37°24' W 024°37'2 3.3
2017-Aug-10 05:30N 37°23' W 024°39'3 6.7
2017-Aug-10 05:00N 37°26' W 024°42'3 6.7
2017-Aug-10 04:30N 37°28' W 024°45'3 6.5
2017-Aug-10 04:00N 37°30' W 024°48'4 6.4
2017-Aug-10 03:25N 37°33' W 024°52'3 6.1
2017-Aug-10 03:00N 37°34' W 024°54'3 6.0
2017-Aug-10 02:30N 37°35' W 024°58'2 3.9
2017-Aug-10 02:00N 37°33' W 024°57'3 6.1
2017-Aug-10 01:31N 37°31' W 024°54'3 6.2
2017-Aug-10 01:00N 37°29' W 024°51'3 6.2
2017-Aug-10 00:30N 37°27' W 024°49'3 6.5
2017-Aug-10 00:00N 37°24' W 024°46'3 6.5
2017-Aug-09 23:30N 37°22' W 024°43'3 6.4
2017-Aug-09 23:00N 37°20' W 024°40'3 6.3
2017-Aug-09 22:30N 37°18' W 024°37'2 3.5
2017-Aug-09 22:00N 37°16' W 024°37'3 5.9
2017-Aug-09 21:30N 37°15' W 024°41'1 1.4
2017-Aug-09 21:01N 37°15' W 024°40'3 6.3
2017-Aug-09 20:30N 37°16' W 024°36'3 6.1
2017-Aug-09 20:00N 37°17' W 024°32'2 3.6
2017-Aug-09 19:30N 37°15' W 024°32'3 6.5
2017-Aug-09 19:00N 37°12' W 024°31'2 3.9
2017-Aug-09 18:30N 37°10' W 024°32'3 5.4
2017-Aug-09 18:00N 37°11' W 024°36'3 5.9
2017-Aug-09 17:30N 37°11' W 024°39'3 6.0
2017-Aug-09 17:00N 37°11' W 024°43'3 5.8
2017-Aug-09 16:30N 37°11' W 024°47'2 3.1
2017-Aug-09 16:00N 37°13' W 024°47'3 6.1
2017-Aug-09 15:30N 37°15' W 024°50'3 6.3
2017-Aug-09 15:00N 37°17' W 024°53'1 2.8
2017-Aug-09 14:30N 37°18' W 024°54'4 7.9
2017-Aug-09 14:00N 37°19' W 024°49'3 6.9
2017-Aug-09 13:30N 37°18' W 024°45'2 4.1
2017-Aug-09 13:00N 37°17' W 024°43'3 5.9
2017-Aug-09 12:30N 37°18' W 024°46'3 5.9
2017-Aug-09 12:01N 37°20' W 024°49'2 4.9
2017-Aug-09 11:31N 37°20' W 024°46'3 6.1
2017-Aug-09 11:00N 37°19' W 024°43'3 6.1
2017-Aug-09 10:30N 37°17' W 024°39'3 6.4
2017-Aug-09 10:00N 37°17' W 024°35'3 6.3
2017-Aug-09 09:31N 37°16' W 024°32'3 6.5
2017-Aug-09 09:00N 37°16' W 024°27'2 4.8
2017-Aug-09 08:30N 37°16' W 024°30'3 6.2
2017-Aug-09 08:00N 37°15' W 024°34'3 5.8
2017-Aug-09 07:30N 37°14' W 024°38'3 6.0
2017-Aug-09 07:01N 37°14' W 024°41'0 0.2
2017-Aug-09 06:30N 37°14' W 024°41'1 1.6
2017-Aug-09 06:01N 37°15' W 024°41'3 6.3
2017-Aug-09 05:30N 37°18' W 024°40'1 1.6
2017-Aug-09 05:00N 37°18' W 024°40'3 6.3
2017-Aug-09 04:30N 37°20' W 024°43'3 6.3
2017-Aug-09 04:00N 37°23' W 024°46'3 6.3
2017-Aug-09 03:30N 37°25' W 024°49'3 6.2
2017-Aug-09 03:00N 37°27' W 024°52'3 6.6
2017-Aug-09 02:30N 37°29' W 024°55'3 6.5
2017-Aug-09 02:01N 37°31' W 024°59'3 6.3
2017-Aug-09 01:30N 37°33' W 025°02'3 6.2
2017-Aug-09 01:01N 37°35' W 025°04'3 6.2
2017-Aug-09 00:30N 37°36' W 025°08'1 2.8
2017-Aug-09 00:01N 37°35' W 025°08'3 6.4
2017-Aug-08 23:30N 37°33' W 025°05'3 6.3
2017-Aug-08 23:00N 37°30' W 025°02'3 6.2
2017-Aug-08 22:30N 37°28' W 024°59'3 6.4
2017-Aug-08 22:00N 37°26' W 024°56'3 6.6
2017-Aug-08 21:30N 37°24' W 024°53'3 6.6
2017-Aug-08 21:00N 37°22' W 024°50'3 6.6
2017-Aug-08 20:30N 37°20' W 024°47'3 6.6
2017-Aug-08 20:01N 37°18' W 024°44'3 6.0
2017-Aug-08 19:30N 37°15' W 024°42'2 4.6
2017-Aug-08 19:00N 37°13' W 024°43'3 6.3
2017-Aug-08 18:30N 37°14' W 024°39'3 6.4
2017-Aug-08 18:00N 37°14' W 024°35'3 6.9
2017-Aug-08 17:30N 37°15' W 024°31'3 6.6
2017-Aug-08 17:00N 37°15' W 024°26'3 6.4
2017-Aug-08 16:30N 37°16' W 024°22'2 3.1
2017-Aug-08 16:00N 37°14' W 024°22'3 6.2
2017-Aug-08 15:30N 37°14' W 024°25'3 6.2
2017-Aug-08 15:00N 37°14' W 024°29'3 6.4
2017-Aug-08 14:30N 37°13' W 024°33'3 6.1
2017-Aug-08 14:00N 37°13' W 024°37'3 6.3
2017-Aug-08 13:30N 37°13' W 024°41'1 1.7
2017-Aug-08 13:01N 37°12' W 024°42'3 6.5
2017-Aug-08 12:30N 37°12' W 024°38'3 6.1
2017-Aug-08 12:00N 37°12' W 024°34'3 6.4
2017-Aug-08 11:30N 37°12' W 024°30'3 6.4
2017-Aug-08 11:01N 37°12' W 024°26'3 6.5
2017-Aug-08 10:30N 37°12' W 024°22'2 4.7
2017-Aug-08 10:00N 37°10' W 024°24'3 5.9
2017-Aug-08 09:30N 37°10' W 024°27'3 5.8
2017-Aug-08 09:00N 37°11' W 024°31'3 5.9
2017-Aug-08 08:30N 37°11' W 024°35'3 5.7
2017-Aug-08 08:00N 37°11' W 024°38'1 2.2
2017-Aug-08 07:30N 37°11' W 024°39'3 5.9
2017-Aug-08 07:00N 37°12' W 024°43'3 6.1
2017-Aug-08 06:30N 37°12' W 024°47'1 1.1
2017-Aug-08 06:00N 37°11' W 024°48'3 5.9
2017-Aug-08 05:30N 37°13' W 024°50'3 5.9
2017-Aug-08 05:00N 37°15' W 024°53'2 3.4
2017-Aug-08 04:30N 37°16' W 024°51'3 6.1
2017-Aug-08 04:00N 37°14' W 024°48'1 1.6
2017-Aug-08 03:30N 37°14' W 024°47'3 5.3
2017-Aug-08 03:00N 37°17' W 024°48'2 4.2
2017-Aug-08 02:30N 37°19' W 024°49'3 6.3
2017-Aug-08 01:58N 37°21' W 024°52'3 6.3
2017-Aug-08 01:29N 37°23' W 024°55'3 6.3
2017-Aug-08 01:00N 37°25' W 024°58'3 6.1
2017-Aug-08 00:30N 37°27' W 025°01'3 6.2
2017-Aug-08 00:00N 37°29' W 025°04'3 6.2
2017-Aug-07 23:30N 37°31' W 025°07'3 6.3
2017-Aug-07 23:00N 37°33' W 025°10'3 6.2
2017-Aug-07 22:30N 37°35' W 025°13'2 3.2
2017-Aug-07 22:00N 37°35' W 025°14'3 6.5
2017-Aug-07 21:31N 37°33' W 025°11'3 6.4
2017-Aug-07 21:00N 37°30' W 025°08'3 6.5
2017-Aug-07 20:30N 37°28' W 025°05'3 6.2
2017-Aug-07 20:00N 37°26' W 025°02'3 6.5
2017-Aug-07 19:30N 37°24' W 024°59'3 6.7
2017-Aug-07 19:00N 37°22' W 024°56'3 6.4
2017-Aug-07 18:30N 37°20' W 024°53'3 6.5
2017-Aug-07 18:01N 37°18' W 024°50'2 4.7
2017-Aug-07 17:30N 37°16' W 024°48'2 4.8
2017-Aug-07 17:00N 37°14' W 024°46'3 6.4
2017-Aug-07 16:30N 37°12' W 024°43'3 6.4
2017-Aug-07 16:01N 37°15' W 024°42'1 2.7
2017-Aug-07 15:30N 37°17' W 024°42'2 4.9
2017-Aug-07 15:00N 37°14' W 024°43'2 3.4
2017-Aug-07 14:30N 37°13' W 024°43'3 6.7
2017-Aug-07 14:00N 37°16' W 024°42'1 1.6
2017-Aug-07 13:31N 37°15' W 024°42'3 5.3
2017-Aug-07 13:00N 37°17' W 024°45'1 1.2
2017-Aug-07 12:31N 37°17' W 024°45'1 2.2
2017-Aug-07 12:00N 37°18' W 024°47'1 2.5
2017-Aug-07 11:30N 37°17' W 024°45'3 6.5
2017-Aug-07 11:00N 37°16' W 024°42'2 4.5
2017-Aug-07 10:30N 37°17' W 024°44'3 6.2
2017-Aug-07 10:00N 37°18' W 024°48'2 3.2
2017-Aug-07 09:30N 37°17' W 024°47'2 3.5
2017-Aug-07 09:00N 37°16' W 024°49'3 6.1
2017-Aug-07 08:30N 37°18' W 024°53'3 6.4
2017-Aug-07 08:00N 37°20' W 024°56'3 6.3
2017-Aug-07 07:30N 37°22' W 024°59'3 6.3
2017-Aug-07 07:01N 37°24' W 025°02'3 6.4
2017-Aug-07 06:30N 37°26' W 025°05'3 6.5
2017-Aug-07 06:00N 37°28' W 025°08'3 6.3
2017-Aug-07 05:30N 37°30' W 025°11'3 6.7
2017-Aug-07 05:00N 37°33' W 025°14'3 6.5
2017-Aug-07 04:30N 37°34' W 025°18'3 6.5
2017-Aug-07 04:00N 37°35' W 025°21'3 6.5
2017-Aug-07 03:30N 37°37' W 025°25'3 6.8
2017-Aug-07 03:00N 37°39' W 025°28'3 6.7
2017-Aug-07 02:30N 37°41' W 025°32'4 7.3
2017-Aug-07 02:00N 37°43' W 025°36'2 4.8
2017-Aug-07 01:31N 37°44' W 025°38'0 0.7
2017-Aug-07 01:00N 37°44' W 025°39'4 7.0
2017-Aug-07 00:30N 37°42' W 025°35'3 6.7
2017-Aug-07 00:01N 37°40' W 025°31'3 6.9
2017-Aug-06 23:30N 37°38' W 025°28'4 7.3
2017-Aug-06 23:00N 37°36' W 025°24'4 7.4
2017-Aug-06 22:30N 37°34' W 025°20'3 6.6
2017-Aug-06 22:00N 37°32' W 025°17'3 6.4
2017-Aug-06 21:30N 37°30' W 025°14'3 6.7
2017-Aug-06 21:00N 37°28' W 025°11'3 6.3
2017-Aug-06 20:30N 37°26' W 025°08'3 6.3
2017-Aug-06 20:00N 37°24' W 025°05'3 6.5
2017-Aug-06 19:30N 37°21' W 025°02'3 6.5
2017-Aug-06 19:00N 37°19' W 024°59'  
Track history (hours):
 
Tides and Currents Weather Stations Pressure Air Temp Water Temp Dewpoint Dewpoint Depression Visibility Wind Speed Wind Dir Waves Ship Positions

Oceanographic research ship D. Carlos I (Portugal)

Detailed information on ship capabilities available from University of Delaware's Ocean Information Center.

Last reported at 2017-Aug-16 19:00 UTC. Time now 2017-Aug-16 19:12 UTC.
Position N 37°52' W 027°09'.

Length 17 m; draft 6 m.

Type: Other ship. MMSI: 263144000.

Date/timePositionNaut miles runAvg speedWind from/ knotsBaromVisibWave heightAir tempDewpointWater temp
2017-Aug-16 19:00N 37°52' W 027°09'4 5.5
2017-Aug-16 18:13N 37°55' W 027°05'5 5.5
2017-Aug-16 17:19N 37°59' W 027°01'2 5.9
2017-Aug-16 16:55N 38°01' W 026°60'2 6.1
2017-Aug-16 16:30N 38°03' W 026°58'3 6.1
2017-Aug-16 16:00N 38°06' W 026°55'3 5.9
2017-Aug-16 15:31N 38°08' W 026°53'2 4.7
2017-Aug-16 15:00N 38°10' W 026°52'1 1.0
2017-Aug-16 14:31N 38°10' W 026°51'3 6.1
2017-Aug-16 14:01N 38°13' W 026°52'3 5.7
2017-Aug-16 13:30N 38°16' W 026°53'3 6.2
2017-Aug-16 12:59N 38°19' W 026°54'3 6.3
2017-Aug-16 12:30N 38°22' W 026°55'3 6.5
2017-Aug-16 12:00N 38°25' W 026°56'3 6.9
2017-Aug-16 11:30N 38°28' W 026°57'3 6.8
2017-Aug-16 11:00N 38°32' W 026°58'4 6.6
2017-Aug-16 10:26N 38°35' W 026°59'3 6.8
2017-Aug-16 10:00N 38°38' W 027°00'3 6.5
2017-Aug-16 09:30N 38°41' W 027°01'2 4.1
2017-Aug-16 08:58N 38°43' W 027°02'3 5.4
2017-Aug-16 08:27N 38°42' W 026°59'10 6.1
2017-Aug-16 06:45N 38°35' W 026°49'1 5.6
2017-Aug-16 06:30N 38°34' W 026°48'3 5.9
2017-Aug-16 05:55N 38°31' W 026°45'3 6.3
2017-Aug-16 05:25N 38°29' W 026°42'7 6.8
2017-Aug-16 04:18N 38°23' W 026°36'2 6.7
2017-Aug-16 04:00N 38°22' W 026°34'4 6.6
2017-Aug-16 03:26N 38°19' W 026°30'3 6.6
2017-Aug-16 02:59N 38°17' W 026°28'3 6.6
2017-Aug-16 02:31N 38°15' W 026°25'3 6.3
2017-Aug-16 02:01N 38°13' W 026°22'3 5.9
2017-Aug-16 01:30N 38°11' W 026°20'3 5.9
2017-Aug-16 01:01N 38°09' W 026°17'3 6.3
2017-Aug-16 00:30N 38°06' W 026°14'3 6.4
2017-Aug-16 00:00N 38°04' W 026°11'3 6.4
2017-Aug-15 23:30N 38°01' W 026°09'3 6.2
2017-Aug-15 23:00N 37°59' W 026°06'3 6.0
2017-Aug-15 22:30N 37°57' W 026°03'3 5.9
2017-Aug-15 22:00N 37°55' W 026°00'3 5.5
2017-Aug-15 21:30N 37°53' W 025°58'3 5.5
2017-Aug-15 21:00N 37°51' W 025°55'3 5.9
2017-Aug-15 20:31N 37°49' W 025°53'3 6.2
2017-Aug-15 20:00N 37°47' W 025°50'3 6.2
2017-Aug-15 19:30N 37°45' W 025°47'3 6.2
2017-Aug-15 19:01N 37°44' W 025°44'3 5.5
2017-Aug-15 18:30N 37°43' W 025°40'1 2.7
2017-Aug-15 18:00N 37°44' W 025°39'  
2017-Aug-12 19:13N 37°44' W 025°40'0 0.3
2017-Aug-12 19:01N 37°44' W 025°39'3 6.5
2017-Aug-12 18:31N 37°43' W 025°36'4 7.6
2017-Aug-12 18:00N 37°40' W 025°32'4 7.4
2017-Aug-12 17:31N 37°38' W 025°28'4 7.5
2017-Aug-12 17:00N 37°36' W 025°24'4 7.2
2017-Aug-12 16:31N 37°35' W 025°20'4 7.7
2017-Aug-12 16:01N 37°32' W 025°16'4 7.8
2017-Aug-12 15:31N 37°30' W 025°12'4 7.4
2017-Aug-12 15:01N 37°28' W 025°08'4 7.6
2017-Aug-12 14:31N 37°26' W 025°04'4 7.7
2017-Aug-12 14:01N 37°23' W 025°01'4 7.8
2017-Aug-12 13:30N 37°21' W 024°57'4 7.8
2017-Aug-12 13:01N 37°19' W 024°53'4 7.9
2017-Aug-12 12:30N 37°16' W 024°49'3 5.2
2017-Aug-12 12:00N 37°15' W 024°46'4 7.2
2017-Aug-12 11:30N 37°13' W 024°43'4 7.7
2017-Aug-12 11:00N 37°11' W 024°38'2 3.2
2017-Aug-12 10:30N 37°10' W 024°37'3 6.8
2017-Aug-12 10:00N 37°10' W 024°41'3 6.7
2017-Aug-12 09:30N 37°10' W 024°45'3 6.9
2017-Aug-12 09:01N 37°10' W 024°50'3 6.9
2017-Aug-12 08:30N 37°10' W 024°54'2 4.7
2017-Aug-12 08:00N 37°13' W 024°54'4 7.6
2017-Aug-12 07:30N 37°15' W 024°50'2 4.7
2017-Aug-12 07:00N 37°16' W 024°47'1 2.6
2017-Aug-12 06:30N 37°17' W 024°46'4 7.1
2017-Aug-12 06:00N 37°19' W 024°42'4 7.7
2017-Aug-12 05:30N 37°21' W 024°38'4 7.1
2017-Aug-12 05:01N 37°23' W 024°41'4 7.3
2017-Aug-12 04:30N 37°26' W 024°44'3 6.2
2017-Aug-12 04:00N 37°27' W 024°48'4 7.6
2017-Aug-12 03:30N 37°26' W 024°52'4 7.6
2017-Aug-12 03:00N 37°24' W 024°57'4 7.5
2017-Aug-12 02:30N 37°22' W 025°01'2 4.3
2017-Aug-12 02:00N 37°20' W 025°02'3 5.2
2017-Aug-12 01:30N 37°21' W 025°05'3 5.8
2017-Aug-12 01:00N 37°22' W 025°08'4 7.2
2017-Aug-12 00:31N 37°24' W 025°12'4 7.0
2017-Aug-12 00:00N 37°27' W 025°15'3 6.8
2017-Aug-11 23:31N 37°29' W 025°18'3 6.7
2017-Aug-11 23:00N 37°31' W 025°21'3 7.0
2017-Aug-11 22:30N 37°34' W 025°25'4 7.0
2017-Aug-11 22:00N 37°36' W 025°28'3 6.9
2017-Aug-11 21:30N 37°38' W 025°31'3 6.8
2017-Aug-11 21:00N 37°40' W 025°34'3 6.9
2017-Aug-11 20:30N 37°43' W 025°37'2 3.9
2017-Aug-11 20:00N 37°44' W 025°39'1 2.4
2017-Aug-11 19:30N 37°44' W 025°38'4 7.9
2017-Aug-11 19:00N 37°42' W 025°33'4 7.6
2017-Aug-11 18:30N 37°39' W 025°30'4 7.7
2017-Aug-11 18:00N 37°37' W 025°26'4 7.6
2017-Aug-11 17:30N 37°35' W 025°22'4 7.4
2017-Aug-11 17:00N 37°33' W 025°17'4 8.0
2017-Aug-11 16:31N 37°31' W 025°14'4 7.9
2017-Aug-11 16:00N 37°29' W 025°10'4 7.7
2017-Aug-11 15:30N 37°26' W 025°06'2 4.1
2017-Aug-11 15:01N 37°24' W 025°04'3 5.8
2017-Aug-11 14:31N 37°22' W 025°02'3 3.4
2017-Aug-11 13:30N 37°24' W 025°06'2 4.9
2017-Aug-11 13:00N 37°22' W 025°07'4 7.1
2017-Aug-11 12:30N 37°19' W 025°04'4 7.1
2017-Aug-11 12:01N 37°17' W 025°01'4 7.1
2017-Aug-11 11:30N 37°15' W 024°57'4 7.1
2017-Aug-11 11:00N 37°12' W 024°54'3 5.4
2017-Aug-11 10:30N 37°10' W 024°52'3 6.6
2017-Aug-11 10:01N 37°12' W 024°55'4 7.1
2017-Aug-11 09:30N 37°15' W 024°58'3 6.1
2017-Aug-11 09:00N 37°17' W 025°01'3 6.9
2017-Aug-11 08:31N 37°18' W 024°57'4 7.1
2017-Aug-11 08:00N 37°20' W 024°53'3 7.1
2017-Aug-11 07:31N 37°22' W 024°49'3 6.6
2017-Aug-11 07:00N 37°23' W 024°45'3 6.8
2017-Aug-11 06:30N 37°25' W 024°42'2 4.4
2017-Aug-11 06:00N 37°26' W 024°40'4 7.4
2017-Aug-11 05:30N 37°29' W 024°43'3 7.0
2017-Aug-11 05:00N 37°30' W 024°47'3 6.9
2017-Aug-11 04:30N 37°32' W 024°51'3 6.9
2017-Aug-11 04:00N 37°33' W 024°55'3 6.8
2017-Aug-11 03:30N 37°35' W 024°59'4 7.1
2017-Aug-11 03:00N 37°33' W 025°03'4 7.4
2017-Aug-11 02:30N 37°32' W 025°07'4 7.1
2017-Aug-11 02:00N 37°30' W 025°11'3 7.0
2017-Aug-11 01:30N 37°28' W 025°15'3 5.8
2017-Aug-11 01:00N 37°27' W 025°18'4 7.6
2017-Aug-11 00:30N 37°25' W 025°14'4 7.4
2017-Aug-11 00:00N 37°25' W 025°09'3 6.8
2017-Aug-10 23:31N 37°23' W 025°06'2 4.8
2017-Aug-10 23:00N 37°21' W 025°03'2 4.4
2017-Aug-10 22:30N 37°23' W 025°05'3 5.9
2017-Aug-10 22:00N 37°25' W 025°08'2 4.9
2017-Aug-10 21:31N 37°23' W 025°06'3 6.9
2017-Aug-10 21:00N 37°21' W 025°02'2 3.2
2017-Aug-10 20:30N 37°22' W 025°04'3 6.6
2017-Aug-10 20:00N 37°25' W 025°07'1 2.2
2017-Aug-10 19:30N 37°25' W 025°06'1 2.9
2017-Aug-10 19:00N 37°24' W 025°05'3 6.0
2017-Aug-10 18:30N 37°26' W 025°08'2 4.0
2017-Aug-10 18:00N 37°25' W 025°05'3 6.6
2017-Aug-10 17:31N 37°22' W 025°03'2 3.7
2017-Aug-10 17:00N 37°22' W 025°00'3 6.4
2017-Aug-10 16:30N 37°24' W 025°03'3 6.4
2017-Aug-10 16:00N 37°26' W 025°06'3 6.3
2017-Aug-10 15:30N 37°28' W 025°09'1 3.0
2017-Aug-10 15:00N 37°29' W 025°08'3 6.1
2017-Aug-10 14:31N 37°27' W 025°05'3 6.2
2017-Aug-10 14:00N 37°25' W 025°02'3 5.4
2017-Aug-10 13:31N 37°25' W 024°59'3 6.2
2017-Aug-10 13:00N 37°26' W 024°55'3 6.3
2017-Aug-10 12:30N 37°28' W 024°52'3 6.2
2017-Aug-10 12:00N 37°29' W 024°48'3 6.3
2017-Aug-10 11:30N 37°30' W 024°45'3 6.3
2017-Aug-10 11:01N 37°32' W 024°41'3 5.4
2017-Aug-10 10:30N 37°30' W 024°39'1 1.7
2017-Aug-10 10:00N 37°29' W 024°39'3 5.5
2017-Aug-10 09:30N 37°31' W 024°42'3 5.8
2017-Aug-10 09:01N 37°33' W 024°44'3 5.5
2017-Aug-10 08:30N 37°34' W 024°47'2 3.5
2017-Aug-10 08:00N 37°33' W 024°49'3 6.3
2017-Aug-10 07:30N 37°31' W 024°46'3 6.7
2017-Aug-10 07:00N 37°29' W 024°42'3 6.5
2017-Aug-10 06:30N 37°27' W 024°39'3 6.0
2017-Aug-10 06:00N 37°24' W 024°37'2 3.3
2017-Aug-10 05:30N 37°23' W 024°39'3 6.7
2017-Aug-10 05:00N 37°26' W 024°42'3 6.7
2017-Aug-10 04:30N 37°28' W 024°45'3 6.5
2017-Aug-10 04:00N 37°30' W 024°48'4 6.4
2017-Aug-10 03:25N 37°33' W 024°52'3 6.1
2017-Aug-10 03:00N 37°34' W 024°54'3 6.0
2017-Aug-10 02:30N 37°35' W 024°58'2 3.9
2017-Aug-10 02:00N 37°33' W 024°57'3 6.1
2017-Aug-10 01:31N 37°31' W 024°54'3 6.2
2017-Aug-10 01:00N 37°29' W 024°51'3 6.2
2017-Aug-10 00:30N 37°27' W 024°49'3 6.5
2017-Aug-10 00:00N 37°24' W 024°46'3 6.5
2017-Aug-09 23:30N 37°22' W 024°43'3 6.4
2017-Aug-09 23:00N 37°20' W 024°40'3 6.3
2017-Aug-09 22:30N 37°18' W 024°37'2 3.5
2017-Aug-09 22:00N 37°16' W 024°37'3 5.9
2017-Aug-09 21:30N 37°15' W 024°41'1 1.4
2017-Aug-09 21:01N 37°15' W 024°40'3 6.3
2017-Aug-09 20:30N 37°16' W 024°36'3 6.1
2017-Aug-09 20:00N 37°17' W 024°32'2 3.6
2017-Aug-09 19:30N 37°15' W 024°32'3 6.5
2017-Aug-09 19:00N 37°12' W 024°31'2 3.9
2017-Aug-09 18:30N 37°10' W 024°32'3 5.4
2017-Aug-09 18:00N 37°11' W 024°36'3 5.9
2017-Aug-09 17:30N 37°11' W 024°39'3 6.0
2017-Aug-09 17:00N 37°11' W 024°43'3 5.8
2017-Aug-09 16:30N 37°11' W 024°47'2 3.1
2017-Aug-09 16:00N 37°13' W 024°47'3 6.1
2017-Aug-09 15:30N 37°15' W 024°50'3 6.3
2017-Aug-09 15:00N 37°17' W 024°53'1 2.8
2017-Aug-09 14:30N 37°18' W 024°54'4 7.9
2017-Aug-09 14:00N 37°19' W 024°49'3 6.9
2017-Aug-09 13:30N 37°18' W 024°45'2 4.1
2017-Aug-09 13:00N 37°17' W 024°43'3 5.9
2017-Aug-09 12:30N 37°18' W 024°46'3 5.9
2017-Aug-09 12:01N 37°20' W 024°49'2 4.9
2017-Aug-09 11:31N 37°20' W 024°46'3 6.1
2017-Aug-09 11:00N 37°19' W 024°43'3 6.1
2017-Aug-09 10:30N 37°17' W 024°39'3 6.4
2017-Aug-09 10:00N 37°17' W 024°35'3 6.3
2017-Aug-09 09:31N 37°16' W 024°32'3 6.5
2017-Aug-09 09:00N 37°16' W 024°27'2 4.8
2017-Aug-09 08:30N 37°16' W 024°30'3 6.2
2017-Aug-09 08:00N 37°15' W 024°34'3 5.8
2017-Aug-09 07:30N 37°14' W 024°38'3 6.0
2017-Aug-09 07:01N 37°14' W 024°41'0 0.2
2017-Aug-09 06:30N 37°14' W 024°41'1 1.6
2017-Aug-09 06:01N 37°15' W 024°41'3 6.3
2017-Aug-09 05:30N 37°18' W 024°40'1 1.6
2017-Aug-09 05:00N 37°18' W 024°40'3 6.3
2017-Aug-09 04:30N 37°20' W 024°43'3 6.3
2017-Aug-09 04:00N 37°23' W 024°46'3 6.3
2017-Aug-09 03:30N 37°25' W 024°49'3 6.2
2017-Aug-09 03:00N 37°27' W 024°52'3 6.6
2017-Aug-09 02:30N 37°29' W 024°55'3 6.5
2017-Aug-09 02:01N 37°31' W 024°59'3 6.3
2017-Aug-09 01:30N 37°33' W 025°02'3 6.2
2017-Aug-09 01:01N 37°35' W 025°04'3 6.2
2017-Aug-09 00:30N 37°36' W 025°08'1 2.8
2017-Aug-09 00:01N 37°35' W 025°08'3 6.4
2017-Aug-08 23:30N 37°33' W 025°05'3 6.3
2017-Aug-08 23:00N 37°30' W 025°02'3 6.2
2017-Aug-08 22:30N 37°28' W 024°59'3 6.4
2017-Aug-08 22:00N 37°26' W 024°56'3 6.6
2017-Aug-08 21:30N 37°24' W 024°53'3 6.6
2017-Aug-08 21:00N 37°22' W 024°50'3 6.6
2017-Aug-08 20:30N 37°20' W 024°47'3 6.6
2017-Aug-08 20:01N 37°18' W 024°44'3 6.0
2017-Aug-08 19:30N 37°15' W 024°42'2 4.6
2017-Aug-08 19:00N 37°13' W 024°43'3 6.3
2017-Aug-08 18:30N 37°14' W 024°39'3 6.4
2017-Aug-08 18:00N 37°14' W 024°35'3 6.9
2017-Aug-08 17:30N 37°15' W 024°31'3 6.6
2017-Aug-08 17:00N 37°15' W 024°26'3 6.4
2017-Aug-08 16:30N 37°16' W 024°22'2 3.1
2017-Aug-08 16:00N 37°14' W 024°22'3 6.2
2017-Aug-08 15:30N 37°14' W 024°25'3 6.2
2017-Aug-08 15:00N 37°14' W 024°29'3 6.4
2017-Aug-08 14:30N 37°13' W 024°33'3 6.1
2017-Aug-08 14:00N 37°13' W 024°37'3 6.3
2017-Aug-08 13:30N 37°13' W 024°41'1 1.7
2017-Aug-08 13:01N 37°12' W 024°42'3 6.5
2017-Aug-08 12:30N 37°12' W 024°38'3 6.1
2017-Aug-08 12:00N 37°12' W 024°34'3 6.4
2017-Aug-08 11:30N 37°12' W 024°30'3 6.4
2017-Aug-08 11:01N 37°12' W 024°26'3 6.5
2017-Aug-08 10:30N 37°12' W 024°22'2 4.7
2017-Aug-08 10:00N 37°10' W 024°24'3 5.9
2017-Aug-08 09:30N 37°10' W 024°27'3 5.8
2017-Aug-08 09:00N 37°11' W 024°31'3 5.9
2017-Aug-08 08:30N 37°11' W 024°35'3 5.7
2017-Aug-08 08:00N 37°11' W 024°38'1 2.2
2017-Aug-08 07:30N 37°11' W 024°39'3 5.9
2017-Aug-08 07:00N 37°12' W 024°43'3 6.1
2017-Aug-08 06:30N 37°12' W 024°47'1 1.1
2017-Aug-08 06:00N 37°11' W 024°48'3 5.9
2017-Aug-08 05:30N 37°13' W 024°50'3 5.9
2017-Aug-08 05:00N 37°15' W 024°53'2 3.4
2017-Aug-08 04:30N 37°16' W 024°51'3 6.1
2017-Aug-08 04:00N 37°14' W 024°48'1 1.6
2017-Aug-08 03:30N 37°14' W 024°47'3 5.3
2017-Aug-08 03:00N 37°17' W 024°48'2 4.2
2017-Aug-08 02:30N 37°19' W 024°49'3 6.3
2017-Aug-08 01:58N 37°21' W 024°52'3 6.3
2017-Aug-08 01:29N 37°23' W 024°55'3 6.3
2017-Aug-08 01:00N 37°25' W 024°58'3 6.1
2017-Aug-08 00:30N 37°27' W 025°01'3 6.2
2017-Aug-08 00:00N 37°29' W 025°04'3 6.2
2017-Aug-07 23:30N 37°31' W 025°07'3 6.3
2017-Aug-07 23:00N 37°33' W 025°10'3 6.2
2017-Aug-07 22:30N 37°35' W 025°13'2 3.2
2017-Aug-07 22:00N 37°35' W 025°14'3 6.5
2017-Aug-07 21:31N 37°33' W 025°11'3 6.4
2017-Aug-07 21:00N 37°30' W 025°08'3 6.5
2017-Aug-07 20:30N 37°28' W 025°05'3 6.2
2017-Aug-07 20:00N 37°26' W 025°02'3 6.5
2017-Aug-07 19:30N 37°24' W 024°59'3 6.7
2017-Aug-07 19:00N 37°22' W 024°56'3 6.4
2017-Aug-07 18:30N 37°20' W 024°53'3 6.5
2017-Aug-07 18:01N 37°18' W 024°50'2 4.7
2017-Aug-07 17:30N 37°16' W 024°48'2 4.8
2017-Aug-07 17:00N 37°14' W 024°46'3 6.4
2017-Aug-07 16:30N 37°12' W 024°43'3 6.4
2017-Aug-07 16:01N 37°15' W 024°42'1 2.7
2017-Aug-07 15:30N 37°17' W 024°42'2 4.9
2017-Aug-07 15:00N 37°14' W 024°43'2 3.4
2017-Aug-07 14:30N 37°13' W 024°43'3 6.7
2017-Aug-07 14:00N 37°16' W 024°42'1 1.6
2017-Aug-07 13:31N 37°15' W 024°42'3 5.3
2017-Aug-07 13:00N 37°17' W 024°45'1 1.2
2017-Aug-07 12:31N 37°17' W 024°45'1 2.2
2017-Aug-07 12:00N 37°18' W 024°47'1 2.5
2017-Aug-07 11:30N 37°17' W 024°45'3 6.5
2017-Aug-07 11:00N 37°16' W 024°42'2 4.5
2017-Aug-07 10:30N 37°17' W 024°44'3 6.2
2017-Aug-07 10:00N 37°18' W 024°48'2 3.2
2017-Aug-07 09:30N 37°17' W 024°47'2 3.5
2017-Aug-07 09:00N 37°16' W 024°49'3 6.1
2017-Aug-07 08:30N 37°18' W 024°53'3 6.4
2017-Aug-07 08:00N 37°20' W 024°56'3 6.3
2017-Aug-07 07:30N 37°22' W 024°59'3 6.3
2017-Aug-07 07:01N 37°24' W 025°02'3 6.4
2017-Aug-07 06:30N 37°26' W 025°05'3 6.5
2017-Aug-07 06:00N 37°28' W 025°08'3 6.3
2017-Aug-07 05:30N 37°30' W 025°11'3 6.7
2017-Aug-07 05:00N 37°33' W 025°14'3 6.5
2017-Aug-07 04:30N 37°34' W 025°18'3 6.5
2017-Aug-07 04:00N 37°35' W 025°21'3 6.5
2017-Aug-07 03:30N 37°37' W 025°25'3 6.8
2017-Aug-07 03:00N 37°39' W 025°28'3 6.7
2017-Aug-07 02:30N 37°41' W 025°32'4 7.3
2017-Aug-07 02:00N 37°43' W 025°36'2 4.8
2017-Aug-07 01:31N 37°44' W 025°38'0 0.7
2017-Aug-07 01:00N 37°44' W 025°39'4 7.0
2017-Aug-07 00:30N 37°42' W 025°35'3 6.7
2017-Aug-07 00:01N 37°40' W 025°31'3 6.9
2017-Aug-06 23:30N 37°38' W 025°28'4 7.3
2017-Aug-06 23:00N 37°36' W 025°24'4 7.4
2017-Aug-06 22:30N 37°34' W 025°20'3 6.6
2017-Aug-06 22:00N 37°32' W 025°17'3 6.4
2017-Aug-06 21:30N 37°30' W 025°14'3 6.7
2017-Aug-06 21:00N 37°28' W 025°11'3 6.3
2017-Aug-06 20:30N 37°26' W 025°08'3 6.3
2017-Aug-06 20:00N 37°24' W 025°05'3 6.5
2017-Aug-06 19:30N 37°21' W 025°02'3 6.5
2017-Aug-06 19:00N 37°19' W 024°59'  

Dump ship's entire track history